sensor_id;sensor_type;location;lat;lon;timestamp;P1;durP1;ratioP1;P2;durP2;ratioP2
35126;SDS011;21300;52.006;5.798;2024-01-15T00:02:12;0.95;;;0.50;;
35126;SDS011;21300;52.006;5.798;2024-01-15T00:04:41;2.47;;;0.80;;
35126;SDS011;21300;52.006;5.798;2024-01-15T00:07:06;1.20;;;0.50;;
35126;SDS011;21300;52.006;5.798;2024-01-15T00:09:33;5.57;;;0.57;;
35126;SDS011;21300;52.006;5.798;2024-01-15T00:11:59;7.88;;;0.88;;
35126;SDS011;21300;52.006;5.798;2024-01-15T00:14:25;2.63;;;0.63;;
35126;SDS011;21300;52.006;5.798;2024-01-15T00:16:51;3.83;;;0.98;;
35126;SDS011;21300;52.006;5.798;2024-01-15T00:19:17;6.22;;;0.82;;
35126;SDS011;21300;52.006;5.798;2024-01-15T00:21:46;3.97;;;0.65;;
35126;SDS011;21300;52.006;5.798;2024-01-15T00:24:12;5.40;;;0.77;;
35126;SDS011;21300;52.006;5.798;2024-01-15T00:26:37;7.90;;;0.98;;
35126;SDS011;21300;52.006;5.798;2024-01-15T00:29:03;1.73;;;0.40;;
35126;SDS011;21300;52.006;5.798;2024-01-15T00:31:29;3.30;;;0.68;;
35126;SDS011;21300;52.006;5.798;2024-01-15T00:33:55;1.38;;;0.50;;
35126;SDS011;21300;52.006;5.798;2024-01-15T00:36:21;4.72;;;1.13;;
35126;SDS011;21300;52.006;5.798;2024-01-15T00:38:47;7.20;;;0.98;;
35126;SDS011;21300;52.006;5.798;2024-01-15T00:41:13;2.53;;;0.40;;
35126;SDS011;21300;52.006;5.798;2024-01-15T00:43:41;7.15;;;0.95;;
35126;SDS011;21300;52.006;5.798;2024-01-15T00:46:07;2.70;;;0.77;;
35126;SDS011;21300;52.006;5.798;2024-01-15T00:48:36;4.68;;;0.77;;
35126;SDS011;21300;52.006;5.798;2024-01-15T00:51:02;2.60;;;0.70;;
35126;SDS011;21300;52.006;5.798;2024-01-15T00:53:28;4.75;;;0.82;;
35126;SDS011;21300;52.006;5.798;2024-01-15T00:55:54;4.28;;;0.90;;
35126;SDS011;21300;52.006;5.798;2024-01-15T00:58:20;4.97;;;0.70;;
35126;SDS011;21300;52.006;5.798;2024-01-15T01:00:45;2.08;;;0.68;;
35126;SDS011;21300;52.006;5.798;2024-01-15T01:03:11;3.70;;;0.57;;
35126;SDS011;21300;52.006;5.798;2024-01-15T01:05:37;9.20;;;0.82;;
35126;SDS011;21300;52.006;5.798;2024-01-15T01:08:02;7.35;;;1.15;;
35126;SDS011;21300;52.006;5.798;2024-01-15T01:10:28;3.83;;;0.47;;
35126;SDS011;21300;52.006;5.798;2024-01-15T01:12:54;3.85;;;1.10;;
35126;SDS011;21300;52.006;5.798;2024-01-15T01:15:19;3.10;;;0.52;;
35126;SDS011;21300;52.006;5.798;2024-01-15T01:17:46;1.27;;;0.75;;
35126;SDS011;21300;52.006;5.798;2024-01-15T01:20:12;4.45;;;0.52;;
35126;SDS011;21300;52.006;5.798;2024-01-15T01:22:37;6.72;;;1.17;;
35126;SDS011;21300;52.006;5.798;2024-01-15T01:25:04;2.55;;;0.70;;
35126;SDS011;21300;52.006;5.798;2024-01-15T01:27:30;2.53;;;0.70;;
35126;SDS011;21300;52.006;5.798;2024-01-15T01:29:55;6.47;;;1.02;;
35126;SDS011;21300;52.006;5.798;2024-01-15T01:32:21;1.67;;;0.77;;
35126;SDS011;21300;52.006;5.798;2024-01-15T01:34:47;0.68;;;0.40;;
35126;SDS011;21300;52.006;5.798;2024-01-15T01:37:12;4.75;;;0.77;;
35126;SDS011;21300;52.006;5.798;2024-01-15T01:39:39;8.57;;;0.65;;
35126;SDS011;21300;52.006;5.798;2024-01-15T01:42:08;4.32;;;0.63;;
35126;SDS011;21300;52.006;5.798;2024-01-15T01:44:34;1.88;;;0.73;;
35126;SDS011;21300;52.006;5.798;2024-01-15T01:46:59;3.47;;;0.68;;
35126;SDS011;21300;52.006;5.798;2024-01-15T01:49:26;5.60;;;0.57;;
35126;SDS011;21300;52.006;5.798;2024-01-15T01:51:53;1.30;;;0.65;;
35126;SDS011;21300;52.006;5.798;2024-01-15T01:54:22;8.30;;;0.82;;
35126;SDS011;21300;52.006;5.798;2024-01-15T01:56:49;10.70;;;1.05;;
35126;SDS011;21300;52.006;5.798;2024-01-15T01:59:22;4.57;;;1.02;;
35126;SDS011;21300;52.006;5.798;2024-01-15T02:01:50;7.38;;;0.65;;
35126;SDS011;21300;52.006;5.798;2024-01-15T02:04:17;4.63;;;0.90;;
35126;SDS011;21300;52.006;5.798;2024-01-15T02:06:43;8.23;;;1.27;;
35126;SDS011;21300;52.006;5.798;2024-01-15T02:09:09;2.95;;;0.85;;
35126;SDS011;21300;52.006;5.798;2024-01-15T02:11:40;8.75;;;0.70;;
35126;SDS011;21300;52.006;5.798;2024-01-15T02:14:06;3.70;;;0.82;;
35126;SDS011;21300;52.006;5.798;2024-01-15T02:16:32;3.13;;;0.60;;
35126;SDS011;21300;52.006;5.798;2024-01-15T02:18:57;7.65;;;0.77;;
35126;SDS011;21300;52.006;5.798;2024-01-15T02:21:23;9.77;;;1.23;;
35126;SDS011;21300;52.006;5.798;2024-01-15T02:23:51;11.95;;;1.08;;
35126;SDS011;21300;52.006;5.798;2024-01-15T02:26:17;4.10;;;0.63;;
35126;SDS011;21300;52.006;5.798;2024-01-15T02:28:43;4.72;;;0.80;;
35126;SDS011;21300;52.006;5.798;2024-01-15T02:31:09;4.22;;;0.80;;
35126;SDS011;21300;52.006;5.798;2024-01-15T02:33:35;8.75;;;0.63;;
35126;SDS011;21300;52.006;5.798;2024-01-15T02:36:00;6.95;;;0.93;;
35126;SDS011;21300;52.006;5.798;2024-01-15T02:38:26;7.53;;;1.02;;
35126;SDS011;21300;52.006;5.798;2024-01-15T02:40:52;3.78;;;0.65;;
35126;SDS011;21300;52.006;5.798;2024-01-15T02:43:17;6.80;;;1.00;;
35126;SDS011;21300;52.006;5.798;2024-01-15T02:45:44;3.35;;;0.40;;
35126;SDS011;21300;52.006;5.798;2024-01-15T02:48:11;4.80;;;1.00;;
35126;SDS011;21300;52.006;5.798;2024-01-15T02:50:36;3.55;;;0.60;;
35126;SDS011;21300;52.006;5.798;2024-01-15T02:53:02;7.70;;;0.95;;
35126;SDS011;21300;52.006;5.798;2024-01-15T02:55:28;2.38;;;0.40;;
35126;SDS011;21300;52.006;5.798;2024-01-15T02:57:54;3.45;;;0.70;;
35126;SDS011;21300;52.006;5.798;2024-01-15T03:00:20;3.58;;;0.60;;
35126;SDS011;21300;52.006;5.798;2024-01-15T03:02:45;2.70;;;0.40;;
35126;SDS011;21300;52.006;5.798;2024-01-15T03:05:15;6.88;;;1.20;;
35126;SDS011;21300;52.006;5.798;2024-01-15T03:07:41;3.33;;;0.80;;
35126;SDS011;21300;52.006;5.798;2024-01-15T03:10:06;4.25;;;0.73;;
35126;SDS011;21300;52.006;5.798;2024-01-15T03:12:32;4.03;;;0.60;;
35126;SDS011;21300;52.006;5.798;2024-01-15T03:14:58;1.50;;;0.47;;
35126;SDS011;21300;52.006;5.798;2024-01-15T03:17:24;8.77;;;0.80;;
35126;SDS011;21300;52.006;5.798;2024-01-15T03:19:50;5.18;;;0.77;;
35126;SDS011;21300;52.006;5.798;2024-01-15T03:22:16;3.65;;;0.82;;
35126;SDS011;21300;52.006;5.798;2024-01-15T03:24:42;3.97;;;0.60;;
35126;SDS011;21300;52.006;5.798;2024-01-15T03:27:07;5.78;;;0.98;;
35126;SDS011;21300;52.006;5.798;2024-01-15T03:29:33;2.65;;;0.40;;
35126;SDS011;21300;52.006;5.798;2024-01-15T03:31:59;6.45;;;0.70;;
35126;SDS011;21300;52.006;5.798;2024-01-15T03:34:24;7.47;;;0.85;;
35126;SDS011;21300;52.006;5.798;2024-01-15T03:36:53;6.15;;;0.90;;
35126;SDS011;21300;52.006;5.798;2024-01-15T03:39:19;9.48;;;0.80;;
35126;SDS011;21300;52.006;5.798;2024-01-15T03:41:44;4.97;;;0.73;;
35126;SDS011;21300;52.006;5.798;2024-01-15T03:44:10;2.08;;;0.52;;
35126;SDS011;21300;52.006;5.798;2024-01-15T03:46:36;8.57;;;0.95;;
35126;SDS011;21300;52.006;5.798;2024-01-15T03:49:01;6.07;;;0.70;;
35126;SDS011;21300;52.006;5.798;2024-01-15T03:51:27;5.55;;;0.57;;
35126;SDS011;21300;52.006;5.798;2024-01-15T03:53:53;2.72;;;0.73;;
35126;SDS011;21300;52.006;5.798;2024-01-15T03:56:19;7.53;;;0.50;;
35126;SDS011;21300;52.006;5.798;2024-01-15T03:58:44;6.22;;;0.50;;
35126;SDS011;21300;52.006;5.798;2024-01-15T04:01:10;1.35;;;0.50;;
35126;SDS011;21300;52.006;5.798;2024-01-15T04:03:36;6.25;;;0.68;;
35126;SDS011;21300;52.006;5.798;2024-01-15T04:06:02;7.65;;;0.75;;
35126;SDS011;21300;52.006;5.798;2024-01-15T04:08:29;6.45;;;0.65;;
35126;SDS011;21300;52.006;5.798;2024-01-15T04:10:54;2.67;;;0.82;;
35126;SDS011;21300;52.006;5.798;2024-01-15T04:13:20;4.22;;;0.68;;
35126;SDS011;21300;52.006;5.798;2024-01-15T04:15:46;4.50;;;0.63;;
35126;SDS011;21300;52.006;5.798;2024-01-15T04:18:12;7.43;;;0.93;;
35126;SDS011;21300;52.006;5.798;2024-01-15T04:20:37;2.40;;;0.40;;
35126;SDS011;21300;52.006;5.798;2024-01-15T04:23:03;1.40;;;0.52;;
35126;SDS011;21300;52.006;5.798;2024-01-15T04:25:32;4.47;;;0.57;;
35126;SDS011;21300;52.006;5.798;2024-01-15T04:27:57;8.38;;;1.08;;
35126;SDS011;21300;52.006;5.798;2024-01-15T04:30:23;2.50;;;0.60;;
35126;SDS011;21300;52.006;5.798;2024-01-15T04:32:49;4.38;;;0.77;;
35126;SDS011;21300;52.006;5.798;2024-01-15T04:35:15;5.25;;;0.82;;
35126;SDS011;21300;52.006;5.798;2024-01-15T04:37:40;2.90;;;0.70;;
35126;SDS011;21300;52.006;5.798;2024-01-15T04:40:06;2.22;;;0.50;;
35126;SDS011;21300;52.006;5.798;2024-01-15T04:42:33;3.72;;;0.57;;
35126;SDS011;21300;52.006;5.798;2024-01-15T04:44:59;4.45;;;0.70;;
35126;SDS011;21300;52.006;5.798;2024-01-15T04:47:24;7.57;;;0.77;;
35126;SDS011;21300;52.006;5.798;2024-01-15T04:49:50;5.63;;;1.08;;
35126;SDS011;21300;52.006;5.798;2024-01-15T04:52:16;7.57;;;0.95;;
35126;SDS011;21300;52.006;5.798;2024-01-15T04:54:41;10.52;;;1.23;;
35126;SDS011;21300;52.006;5.798;2024-01-15T04:57:07;3.78;;;0.65;;
35126;SDS011;21300;52.006;5.798;2024-01-15T04:59:33;6.13;;;0.57;;
35126;SDS011;21300;52.006;5.798;2024-01-15T05:01:58;5.32;;;0.85;;
35126;SDS011;21300;52.006;5.798;2024-01-15T05:04:24;6.90;;;0.80;;
35126;SDS011;21300;52.006;5.798;2024-01-15T05:06:50;3.47;;;0.85;;
35126;SDS011;21300;52.006;5.798;2024-01-15T05:09:16;4.72;;;1.10;;
35126;SDS011;21300;52.006;5.798;2024-01-15T05:11:42;11.05;;;0.93;;
35126;SDS011;21300;52.006;5.798;2024-01-15T05:14:08;5.60;;;1.08;;
35126;SDS011;21300;52.006;5.798;2024-01-15T05:16:34;2.63;;;0.63;;
35126;SDS011;21300;52.006;5.798;2024-01-15T05:19:00;5.05;;;0.70;;
35126;SDS011;21300;52.006;5.798;2024-01-15T05:21:25;4.70;;;0.63;;
35126;SDS011;21300;52.006;5.798;2024-01-15T05:23:51;5.03;;;0.73;;
35126;SDS011;21300;52.006;5.798;2024-01-15T05:26:17;2.55;;;0.60;;
35126;SDS011;21300;52.006;5.798;2024-01-15T05:28:42;2.03;;;0.60;;
35126;SDS011;21300;52.006;5.798;2024-01-15T05:31:08;7.50;;;1.15;;
35126;SDS011;21300;52.006;5.798;2024-01-15T05:33:34;2.95;;;0.80;;
35126;SDS011;21300;52.006;5.798;2024-01-15T05:36:00;3.78;;;0.50;;
35126;SDS011;21300;52.006;5.798;2024-01-15T05:38:26;4.55;;;0.93;;
35126;SDS011;21300;52.006;5.798;2024-01-15T05:40:52;4.10;;;0.63;;
35126;SDS011;21300;52.006;5.798;2024-01-15T05:43:18;4.32;;;0.88;;
35126;SDS011;21300;52.006;5.798;2024-01-15T05:45:44;7.25;;;0.60;;
35126;SDS011;21300;52.006;5.798;2024-01-15T05:48:10;6.30;;;0.70;;
35126;SDS011;21300;52.006;5.798;2024-01-15T05:50:36;6.50;;;0.93;;
35126;SDS011;21300;52.006;5.798;2024-01-15T05:53:01;5.05;;;0.40;;
35126;SDS011;21300;52.006;5.798;2024-01-15T05:55:27;2.40;;;0.70;;
35126;SDS011;21300;52.006;5.798;2024-01-15T05:57:53;3.92;;;1.20;;
35126;SDS011;21300;52.006;5.798;2024-01-15T06:00:19;2.13;;;0.60;;
35126;SDS011;21300;52.006;5.798;2024-01-15T06:02:45;6.38;;;1.00;;
35126;SDS011;21300;52.006;5.798;2024-01-15T06:05:10;2.67;;;0.75;;
35126;SDS011;21300;52.006;5.798;2024-01-15T06:07:36;5.97;;;0.88;;
35126;SDS011;21300;52.006;5.798;2024-01-15T06:10:02;3.80;;;0.70;;
35126;SDS011;21300;52.006;5.798;2024-01-15T06:12:29;1.35;;;0.60;;
35126;SDS011;21300;52.006;5.798;2024-01-15T06:14:56;5.38;;;0.98;;
35126;SDS011;21300;52.006;5.798;2024-01-15T06:17:21;1.00;;;0.60;;
35126;SDS011;21300;52.006;5.798;2024-01-15T06:19:47;3.28;;;0.60;;
35126;SDS011;21300;52.006;5.798;2024-01-15T06:22:12;2.88;;;0.73;;
35126;SDS011;21300;52.006;5.798;2024-01-15T06:24:38;1.80;;;0.73;;
35126;SDS011;21300;52.006;5.798;2024-01-15T06:27:04;5.20;;;1.02;;
35126;SDS011;21300;52.006;5.798;2024-01-15T06:29:29;3.28;;;1.02;;
35126;SDS011;21300;52.006;5.798;2024-01-15T06:31:55;5.55;;;1.20;;
35126;SDS011;21300;52.006;5.798;2024-01-15T06:34:21;3.78;;;0.88;;
35126;SDS011;21300;52.006;5.798;2024-01-15T06:36:46;5.35;;;1.65;;
35126;SDS011;21300;52.006;5.798;2024-01-15T06:39:12;5.55;;;1.20;;
35126;SDS011;21300;52.006;5.798;2024-01-15T06:41:38;5.50;;;1.23;;
35126;SDS011;21300;52.006;5.798;2024-01-15T06:44:08;2.10;;;0.90;;
35126;SDS011;21300;52.006;5.798;2024-01-15T06:46:35;1.15;;;0.70;;
35126;SDS011;21300;52.006;5.798;2024-01-15T06:49:01;1.42;;;0.90;;
35126;SDS011;21300;52.006;5.798;2024-01-15T06:51:26;3.38;;;1.33;;
35126;SDS011;21300;52.006;5.798;2024-01-15T06:53:52;2.13;;;1.25;;
35126;SDS011;21300;52.006;5.798;2024-01-15T06:56:18;2.55;;;1.30;;
35126;SDS011;21300;52.006;5.798;2024-01-15T06:58:43;3.15;;;1.17;;
35126;SDS011;21300;52.006;5.798;2024-01-15T07:01:09;3.92;;;1.05;;
35126;SDS011;21300;52.006;5.798;2024-01-15T07:03:35;4.38;;;2.05;;
35126;SDS011;21300;52.006;5.798;2024-01-15T07:06:01;4.28;;;1.63;;
35126;SDS011;21300;52.006;5.798;2024-01-15T07:08:26;2.10;;;1.67;;
35126;SDS011;21300;52.006;5.798;2024-01-15T07:10:52;3.10;;;1.85;;
35126;SDS011;21300;52.006;5.798;2024-01-15T07:13:18;2.88;;;1.77;;
35126;SDS011;21300;52.006;5.798;2024-01-15T07:15:43;5.03;;;2.72;;
35126;SDS011;21300;52.006;5.798;2024-01-15T07:18:09;4.55;;;1.80;;
35126;SDS011;21300;52.006;5.798;2024-01-15T07:20:34;4.10;;;1.92;;
35126;SDS011;21300;52.006;5.798;2024-01-15T07:23:00;3.70;;;2.33;;
35126;SDS011;21300;52.006;5.798;2024-01-15T07:25:26;4.35;;;2.70;;
35126;SDS011;21300;52.006;5.798;2024-01-15T07:27:51;4.25;;;2.45;;
35126;SDS011;21300;52.006;5.798;2024-01-15T07:30:18;5.57;;;3.70;;
35126;SDS011;21300;52.006;5.798;2024-01-15T07:32:46;17.90;;;8.23;;
35126;SDS011;21300;52.006;5.798;2024-01-15T07:35:13;18.45;;;8.20;;
35126;SDS011;21300;52.006;5.798;2024-01-15T07:37:40;28.27;;;13.00;;
35126;SDS011;21300;52.006;5.798;2024-01-15T07:40:06;9.63;;;5.22;;
35126;SDS011;21300;52.006;5.798;2024-01-15T07:42:33;5.82;;;3.75;;
35126;SDS011;21300;52.006;5.798;2024-01-15T07:44:59;6.05;;;4.13;;
35126;SDS011;21300;52.006;5.798;2024-01-15T07:47:25;5.28;;;3.47;;
35126;SDS011;21300;52.006;5.798;2024-01-15T07:49:52;5.55;;;3.38;;
35126;SDS011;21300;52.006;5.798;2024-01-15T07:52:18;5.18;;;3.17;;
35126;SDS011;21300;52.006;5.798;2024-01-15T07:54:44;5.38;;;3.00;;
35126;SDS011;21300;52.006;5.798;2024-01-15T07:57:10;5.95;;;3.10;;
35126;SDS011;21300;52.006;5.798;2024-01-15T07:59:36;5.30;;;2.70;;
35126;SDS011;21300;52.006;5.798;2024-01-15T08:02:01;5.28;;;2.42;;
35126;SDS011;21300;52.006;5.798;2024-01-15T08:04:27;6.05;;;2.35;;
35126;SDS011;21300;52.006;5.798;2024-01-15T08:06:53;4.30;;;2.30;;
35126;SDS011;21300;52.006;5.798;2024-01-15T08:09:19;3.58;;;2.20;;
35126;SDS011;21300;52.006;5.798;2024-01-15T08:11:45;4.43;;;2.22;;
35126;SDS011;21300;52.006;5.798;2024-01-15T08:14:10;7.65;;;2.58;;
35126;SDS011;21300;52.006;5.798;2024-01-15T08:16:37;4.35;;;2.60;;
35126;SDS011;21300;52.006;5.798;2024-01-15T08:19:07;4.00;;;2.30;;
35126;SDS011;21300;52.006;5.798;2024-01-15T08:21:34;4.07;;;2.15;;
35126;SDS011;21300;52.006;5.798;2024-01-15T08:24:01;3.50;;;2.25;;
35126;SDS011;21300;52.006;5.798;2024-01-15T08:26:30;4.38;;;2.42;;
35126;SDS011;21300;52.006;5.798;2024-01-15T08:29:06;3.92;;;2.67;;
35126;SDS011;21300;52.006;5.798;2024-01-15T08:31:32;4.40;;;2.42;;
35126;SDS011;21300;52.006;5.798;2024-01-15T08:33:57;3.75;;;2.45;;
35126;SDS011;21300;52.006;5.798;2024-01-15T08:36:24;4.55;;;2.45;;
35126;SDS011;21300;52.006;5.798;2024-01-15T08:38:50;3.28;;;1.70;;
35126;SDS011;21300;52.006;5.798;2024-01-15T08:41:16;4.60;;;2.15;;
35126;SDS011;21300;52.006;5.798;2024-01-15T08:43:41;6.88;;;2.97;;
35126;SDS011;21300;52.006;5.798;2024-01-15T08:46:07;3.53;;;2.35;;
35126;SDS011;21300;52.006;5.798;2024-01-15T08:48:33;5.38;;;3.33;;
35126;SDS011;21300;52.006;5.798;2024-01-15T08:50:58;4.03;;;2.90;;
35126;SDS011;21300;52.006;5.798;2024-01-15T08:53:26;5.50;;;2.67;;
35126;SDS011;21300;52.006;5.798;2024-01-15T08:55:53;4.80;;;2.70;;
35126;SDS011;21300;52.006;5.798;2024-01-15T08:58:18;7.30;;;2.58;;
35126;SDS011;21300;52.006;5.798;2024-01-15T09:00:44;5.80;;;2.28;;
35126;SDS011;21300;52.006;5.798;2024-01-15T09:03:10;5.28;;;2.45;;
35126;SDS011;21300;52.006;5.798;2024-01-15T09:05:35;4.20;;;2.47;;
35126;SDS011;21300;52.006;5.798;2024-01-15T09:08:04;6.20;;;2.40;;
35126;SDS011;21300;52.006;5.798;2024-01-15T09:10:30;5.30;;;2.45;;
35126;SDS011;21300;52.006;5.798;2024-01-15T09:12:56;4.82;;;2.60;;
35126;SDS011;21300;52.006;5.798;2024-01-15T09:15:21;4.30;;;2.53;;
35126;SDS011;21300;52.006;5.798;2024-01-15T09:17:47;4.22;;;2.60;;
35126;SDS011;21300;52.006;5.798;2024-01-15T09:20:12;4.82;;;2.80;;
35126;SDS011;21300;52.006;5.798;2024-01-15T09:22:38;5.20;;;2.72;;
35126;SDS011;21300;52.006;5.798;2024-01-15T09:25:06;3.88;;;2.42;;
35126;SDS011;21300;52.006;5.798;2024-01-15T09:27:33;9.38;;;2.90;;
35126;SDS011;21300;52.006;5.798;2024-01-15T09:29:59;4.18;;;2.42;;
35126;SDS011;21300;52.006;5.798;2024-01-15T09:32:24;7.43;;;3.05;;
35126;SDS011;21300;52.006;5.798;2024-01-15T09:34:50;6.97;;;3.15;;
35126;SDS011;21300;52.006;5.798;2024-01-15T09:37:19;8.77;;;2.70;;
35126;SDS011;21300;52.006;5.798;2024-01-15T09:39:44;6.20;;;3.13;;
35126;SDS011;21300;52.006;5.798;2024-01-15T09:42:10;4.10;;;2.40;;
35126;SDS011;21300;52.006;5.798;2024-01-15T09:47:21;2.90;;;1.80;;
35126;SDS011;21300;52.006;5.798;2024-01-15T09:49:47;7.55;;;2.08;;
35126;SDS011;21300;52.006;5.798;2024-01-15T09:52:12;3.72;;;1.65;;
35126;SDS011;21300;52.006;5.798;2024-01-15T09:54:42;5.93;;;2.03;;
35126;SDS011;21300;52.006;5.798;2024-01-15T09:57:09;2.88;;;1.48;;
35126;SDS011;21300;52.006;5.798;2024-01-15T09:59:34;13.05;;;5.82;;
35126;SDS011;21300;52.006;5.798;2024-01-15T10:02:02;3.78;;;1.50;;
35126;SDS011;21300;52.006;5.798;2024-01-15T10:04:29;5.72;;;4.00;;
35126;SDS011;21300;52.006;5.798;2024-01-15T10:06:54;4.63;;;1.70;;
35126;SDS011;21300;52.006;5.798;2024-01-15T10:09:25;6.28;;;3.88;;
35126;SDS011;21300;52.006;5.798;2024-01-15T10:11:51;2.38;;;1.27;;
35126;SDS011;21300;52.006;5.798;2024-01-15T10:14:19;3.38;;;1.75;;
35126;SDS011;21300;52.006;5.798;2024-01-15T10:16:44;4.20;;;2.53;;
35126;SDS011;21300;52.006;5.798;2024-01-15T10:19:10;2.85;;;1.50;;
35126;SDS011;21300;52.006;5.798;2024-01-15T10:21:39;2.63;;;1.95;;
35126;SDS011;21300;52.006;5.798;2024-01-15T10:24:07;2.63;;;1.88;;
35126;SDS011;21300;52.006;5.798;2024-01-15T10:26:36;5.30;;;1.88;;
35126;SDS011;21300;52.006;5.798;2024-01-15T10:29:02;7.53;;;2.00;;
35126;SDS011;21300;52.006;5.798;2024-01-15T10:31:27;8.75;;;2.47;;
35126;SDS011;21300;52.006;5.798;2024-01-15T10:33:53;5.75;;;3.40;;
35126;SDS011;21300;52.006;5.798;2024-01-15T10:36:19;6.78;;;2.55;;
35126;SDS011;21300;52.006;5.798;2024-01-15T10:38:45;7.82;;;2.65;;
35126;SDS011;21300;52.006;5.798;2024-01-15T10:41:14;6.95;;;2.92;;
35126;SDS011;21300;52.006;5.798;2024-01-15T10:43:41;8.88;;;2.85;;
35126;SDS011;21300;52.006;5.798;2024-01-15T10:46:06;4.72;;;2.10;;
35126;SDS011;21300;52.006;5.798;2024-01-15T10:48:33;5.75;;;2.03;;
35126;SDS011;21300;52.006;5.798;2024-01-15T10:51:00;5.20;;;1.80;;
35126;SDS011;21300;52.006;5.798;2024-01-15T10:56:02;4.72;;;1.85;;
35126;SDS011;21300;52.006;5.798;2024-01-15T10:58:29;5.40;;;2.03;;
35126;SDS011;21300;52.006;5.798;2024-01-15T11:00:58;5.88;;;1.75;;
35126;SDS011;21300;52.006;5.798;2024-01-15T11:03:24;5.38;;;1.85;;
35126;SDS011;21300;52.006;5.798;2024-01-15T11:05:50;9.25;;;2.40;;
35126;SDS011;21300;52.006;5.798;2024-01-15T11:08:17;8.50;;;2.15;;
35126;SDS011;21300;52.006;5.798;2024-01-15T11:10:47;4.45;;;1.60;;
35126;SDS011;21300;52.006;5.798;2024-01-15T11:15:59;3.47;;;1.40;;
35126;SDS011;21300;52.006;5.798;2024-01-15T11:18:29;4.40;;;1.73;;
35126;SDS011;21300;52.006;5.798;2024-01-15T11:23:44;5.10;;;1.50;;
35126;SDS011;21300;52.006;5.798;2024-01-15T11:32:00;4.75;;;1.20;;
35126;SDS011;21300;52.006;5.798;2024-01-15T11:37:26;11.80;;;1.58;;
35126;SDS011;21300;52.006;5.798;2024-01-15T11:39:53;6.18;;;1.92;;
35126;SDS011;21300;52.006;5.798;2024-01-15T11:42:19;4.78;;;1.80;;
35126;SDS011;21300;52.006;5.798;2024-01-15T11:44:46;3.45;;;1.50;;
35126;SDS011;21300;52.006;5.798;2024-01-15T11:47:12;6.63;;;1.60;;
35126;SDS011;21300;52.006;5.798;2024-01-15T11:52:26;3.67;;;1.77;;
35126;SDS011;21300;52.006;5.798;2024-01-15T12:00:10;10.15;;;3.13;;
35126;SDS011;21300;52.006;5.798;2024-01-15T12:02:37;10.38;;;5.45;;
35126;SDS011;21300;52.006;5.798;2024-01-15T12:05:05;9.75;;;3.72;;
35126;SDS011;21300;52.006;5.798;2024-01-15T12:07:32;5.72;;;2.50;;
35126;SDS011;21300;52.006;5.798;2024-01-15T12:09:58;9.88;;;1.75;;
35126;SDS011;21300;52.006;5.798;2024-01-15T12:15:04;5.10;;;1.27;;
35126;SDS011;21300;52.006;5.798;2024-01-15T12:17:30;4.72;;;1.98;;
35126;SDS011;21300;52.006;5.798;2024-01-15T12:19:56;6.07;;;1.45;;
35126;SDS011;21300;52.006;5.798;2024-01-15T12:22:22;10.65;;;2.35;;
35126;SDS011;21300;52.006;5.798;2024-01-15T12:24:48;3.97;;;1.10;;
35126;SDS011;21300;52.006;5.798;2024-01-15T12:27:13;3.80;;;1.08;;
35126;SDS011;21300;52.006;5.798;2024-01-15T12:29:39;3.35;;;1.20;;
35126;SDS011;21300;52.006;5.798;2024-01-15T12:32:05;4.55;;;1.27;;
35126;SDS011;21300;52.006;5.798;2024-01-15T12:34:33;5.60;;;1.10;;
35126;SDS011;21300;52.006;5.798;2024-01-15T12:37:09;5.82;;;1.48;;
35126;SDS011;21300;52.006;5.798;2024-01-15T12:39:42;4.18;;;0.90;;
35126;SDS011;21300;52.006;5.798;2024-01-15T12:42:14;5.97;;;1.02;;
35126;SDS011;21300;52.006;5.798;2024-01-15T12:44:45;5.85;;;0.85;;
35126;SDS011;21300;52.006;5.798;2024-01-15T12:47:11;3.60;;;1.20;;
35126;SDS011;21300;52.006;5.798;2024-01-15T12:49:38;8.85;;;1.00;;
35126;SDS011;21300;52.006;5.798;2024-01-15T12:52:13;1.38;;;0.82;;
35126;SDS011;21300;52.006;5.798;2024-01-15T12:55:04;1.20;;;0.60;;
35126;SDS011;21300;52.006;5.798;2024-01-15T12:57:34;3.30;;;0.75;;
35126;SDS011;21300;52.006;5.798;2024-01-15T13:00:20;3.20;;;0.73;;
35126;SDS011;21300;52.006;5.798;2024-01-15T13:06:01;3.15;;;0.70;;
35126;SDS011;21300;52.006;5.798;2024-01-15T13:08:33;2.72;;;0.88;;
35126;SDS011;21300;52.006;5.798;2024-01-15T13:11:06;9.40;;;0.68;;
35126;SDS011;21300;52.006;5.798;2024-01-15T13:13:35;2.65;;;0.98;;
35126;SDS011;21300;52.006;5.798;2024-01-15T13:16:17;3.42;;;0.88;;
35126;SDS011;21300;52.006;5.798;2024-01-15T13:18:46;2.05;;;0.50;;
35126;SDS011;21300;52.006;5.798;2024-01-15T13:21:16;6.28;;;0.55;;
35126;SDS011;21300;52.006;5.798;2024-01-15T13:23:42;4.22;;;0.77;;
35126;SDS011;21300;52.006;5.798;2024-01-15T13:26:10;3.53;;;0.80;;
35126;SDS011;21300;52.006;5.798;2024-01-15T13:28:47;6.50;;;0.70;;
35126;SDS011;21300;52.006;5.798;2024-01-15T13:31:13;5.32;;;0.77;;
35126;SDS011;21300;52.006;5.798;2024-01-15T13:33:41;1.98;;;0.80;;
35126;SDS011;21300;52.006;5.798;2024-01-15T13:36:09;8.13;;;0.98;;
35126;SDS011;21300;52.006;5.798;2024-01-15T13:38:35;4.35;;;1.40;;
35126;SDS011;21300;52.006;5.798;2024-01-15T13:41:35;5.00;;;0.95;;
35126;SDS011;21300;52.006;5.798;2024-01-15T13:44:01;3.58;;;0.93;;
35126;SDS011;21300;52.006;5.798;2024-01-15T13:46:33;10.25;;;2.42;;
35126;SDS011;21300;52.006;5.798;2024-01-15T13:49:05;7.63;;;1.17;;
35126;SDS011;21300;52.006;5.798;2024-01-15T13:51:42;2.78;;;0.93;;
35126;SDS011;21300;52.006;5.798;2024-01-15T13:54:36;4.75;;;1.08;;
35126;SDS011;21300;52.006;5.798;2024-01-15T14:00:31;1.92;;;0.75;;
35126;SDS011;21300;52.006;5.798;2024-01-15T14:03:11;1.70;;;0.80;;
35126;SDS011;21300;52.006;5.798;2024-01-15T14:05:47;5.97;;;0.90;;
35126;SDS011;21300;52.006;5.798;2024-01-15T14:08:15;12.88;;;1.20;;
35126;SDS011;21300;52.006;5.798;2024-01-15T14:10:42;5.38;;;0.98;;
35126;SDS011;21300;52.006;5.798;2024-01-15T14:13:10;2.38;;;0.75;;
35126;SDS011;21300;52.006;5.798;2024-01-15T14:15:36;3.92;;;0.90;;
35126;SDS011;21300;52.006;5.798;2024-01-15T14:18:05;2.58;;;0.80;;
35126;SDS011;21300;52.006;5.798;2024-01-15T14:20:36;4.82;;;0.70;;
35126;SDS011;21300;52.006;5.798;2024-01-15T14:23:02;2.80;;;0.98;;
35126;SDS011;21300;52.006;5.798;2024-01-15T14:25:28;14.15;;;1.48;;
35126;SDS011;21300;52.006;5.798;2024-01-15T14:27:54;3.47;;;0.60;;
35126;SDS011;21300;52.006;5.798;2024-01-15T14:30:20;3.92;;;0.90;;
35126;SDS011;21300;52.006;5.798;2024-01-15T14:32:45;7.60;;;0.85;;
35126;SDS011;21300;52.006;5.798;2024-01-15T14:35:11;7.07;;;0.98;;
35126;SDS011;21300;52.006;5.798;2024-01-15T14:37:40;5.68;;;1.55;;
35126;SDS011;21300;52.006;5.798;2024-01-15T14:40:10;3.83;;;1.10;;
35126;SDS011;21300;52.006;5.798;2024-01-15T14:42:37;4.18;;;0.95;;
35126;SDS011;21300;52.006;5.798;2024-01-15T14:45:03;2.00;;;0.85;;
35126;SDS011;21300;52.006;5.798;2024-01-15T14:47:36;9.55;;;1.40;;
35126;SDS011;21300;52.006;5.798;2024-01-15T14:50:09;7.20;;;1.13;;
35126;SDS011;21300;52.006;5.798;2024-01-15T14:52:44;8.93;;;1.00;;
35126;SDS011;21300;52.006;5.798;2024-01-15T14:55:11;2.25;;;0.82;;
35126;SDS011;21300;52.006;5.798;2024-01-15T14:57:37;5.53;;;1.17;;
35126;SDS011;21300;52.006;5.798;2024-01-15T15:00:03;7.57;;;1.05;;
35126;SDS011;21300;52.006;5.798;2024-01-15T15:02:33;7.38;;;1.08;;
35126;SDS011;21300;52.006;5.798;2024-01-15T15:05:00;3.78;;;1.00;;
35126;SDS011;21300;52.006;5.798;2024-01-15T15:07:26;5.90;;;1.40;;
35126;SDS011;21300;52.006;5.798;2024-01-15T15:09:52;8.25;;;2.13;;
35126;SDS011;21300;52.006;5.798;2024-01-15T15:12:17;9.48;;;1.55;;
35126;SDS011;21300;52.006;5.798;2024-01-15T15:14:43;10.20;;;1.45;;
35126;SDS011;21300;52.006;5.798;2024-01-15T15:17:09;6.22;;;1.08;;
35126;SDS011;21300;52.006;5.798;2024-01-15T15:19:34;7.65;;;1.27;;
35126;SDS011;21300;52.006;5.798;2024-01-15T15:22:00;6.60;;;0.98;;
35126;SDS011;21300;52.006;5.798;2024-01-15T15:24:29;17.50;;;2.10;;